Time;durP1;ratioP1;P1;durP2;ratioP2;P2;SDS_P1;SDS_P2;PMS_P1;PMS_P2;Temp;Humidity;BMP_temperature;BMP_pressure;BME280_temperature;BME280_humidity;BME280_pressure;Samples;Min_cycle;Max_cycle;Signal;HPM_P1;HPM_P2
2022/01/29 00:02:18;;;;;;;31.53;16.93;;;;;;;5.17;91.56;102445.63;5095906;28;20224;-69
2022/01/29 00:04:46;;;;;;;28.17;16.10;;;;;;;5.09;91.72;102436.91;5113847;28;20250;-69
2022/01/29 00:07:14;;;;;;;33.63;16.07;;;;;;;5.12;91.79;102433.44;5114059;28;20242;-69
2022/01/29 00:09:43;;;;;;;36.17;16.60;;;;;;;5.16;92.02;102430.91;5114088;28;20196;-69
2022/01/29 00:12:10;;;;;;;27.80;16.00;;;;;;;5.18;91.57;102431.78;5113784;28;20234;-69
2022/01/29 00:14:37;;;;;;;31.20;15.77;;;;;;;5.23;91.62;102429.25;5113723;28;20234;-69
2022/01/29 00:17:04;;;;;;;29.60;16.17;;;;;;;5.23;91.44;102427.50;5113671;28;20250;-69
2022/01/29 00:19:30;;;;;;;38.63;16.67;;;;;;;5.13;91.64;102414.41;5113657;28;20211;-69
2022/01/29 00:21:58;;;;;;;34.07;17.83;;;;;;;5.13;91.88;102406.63;5113949;28;20254;-69
2022/01/29 00:24:25;;;;;;;36.13;16.77;;;;;;;5.11;92.39;102409.22;5113657;28;20193;-69
2022/01/29 00:26:52;;;;;;;27.53;16.93;;;;;;;5.13;92.17;102401.44;5113638;28;20219;-69
2022/01/29 00:29:21;;;;;;;30.57;16.50;;;;;;;5.17;92.36;102396.28;5113544;28;20208;-69
2022/01/29 00:31:48;;;;;;;34.33;18.87;;;;;;;5.17;92.11;102393.69;5113607;28;20184;-69
2022/01/29 00:34:14;;;;;;;38.70;18.53;;;;;;;5.21;92.43;102395.47;5095346;28;20189;-69
2022/01/29 00:36:41;;;;;;;34.87;17.37;;;;;;;5.22;92.37;102381.63;5113503;28;20185;-69
2022/01/29 00:39:08;;;;;;;35.97;18.77;;;;;;;5.27;92.19;102393.75;5113483;28;20205;-69
2022/01/29 00:41:34;;;;;;;35.10;18.10;;;;;;;5.31;92.17;102385.16;5113461;28;20208;-69
2022/01/29 00:44:01;;;;;;;41.00;19.63;;;;;;;5.30;92.08;102373.03;5113791;28;20190;-69
2022/01/29 00:46:28;;;;;;;32.43;18.20;;;;;;;5.30;92.42;102358.31;5113737;28;20273;-69
2022/01/29 00:48:55;;;;;;;29.97;17.00;;;;;;;5.35;92.39;102359.19;5113423;28;20710;-69
2022/01/29 00:51:21;;;;;;;30.43;18.00;;;;;;;5.31;92.83;102362.63;5114015;28;20166;-69
2022/01/29 00:53:48;;;;;;;33.60;18.03;;;;;;;5.38;92.51;102373.94;5113403;28;20559;-69
2022/01/29 00:56:14;;;;;;;37.80;18.10;;;;;;;5.28;92.75;102353.94;5113931;28;20654;-69
2022/01/29 00:58:41;;;;;;;39.20;18.07;;;;;;;5.33;92.66;102354.84;5113375;28;20261;-69
2022/01/29 01:01:07;;;;;;;38.17;18.40;;;;;;;5.31;92.70;102343.59;5095391;28;20616;-68
2022/01/29 01:03:34;;;;;;;32.50;17.27;;;;;;;5.38;92.65;102342.78;5113945;28;20172;-68
2022/01/29 01:06:00;;;;;;;29.57;17.23;;;;;;;5.31;92.78;102334.06;5113341;28;20186;-69
2022/01/29 01:08:27;;;;;;;38.70;17.73;;;;;;;5.38;92.65;102340.19;5116541;28;20291;-69
2022/01/29 01:10:53;;;;;;;38.30;19.10;;;;;;;5.37;92.51;102344.50;5117137;28;20238;-69
2022/01/29 01:13:20;;;;;;;32.30;17.97;;;;;;;5.35;92.74;102353.13;5117115;28;20242;-69
2022/01/29 01:15:46;;;;;;;39.87;16.90;;;;;;;5.40;92.64;102346.25;5117083;28;20185;-69
2022/01/29 01:18:13;;;;;;;41.10;19.87;;;;;;;5.41;92.94;102324.59;5098549;28;20303;-68
2022/01/29 01:20:39;;;;;;;31.57;18.40;;;;;;;5.48;93.13;102334.16;5117138;28;20250;-68
2022/01/29 01:23:06;;;;;;;40.73;18.40;;;;;;;5.39;93.04;102322.00;5117123;28;20710;-68
2022/01/29 01:25:32;;;;;;;49.97;19.97;;;;;;;5.40;93.50;102310.75;5116862;28;20180;-69
2022/01/29 01:27:59;;;;;;;35.93;18.63;;;;;;;5.40;93.65;102307.28;5117308;28;20555;-69
2022/01/29 01:30:25;;;;;;;33.77;18.00;;;;;;;5.44;93.67;102314.25;5116765;28;20716;-68
2022/01/29 01:32:52;;;;;;;42.43;20.87;;;;;;;5.41;93.78;102306.41;5098452;28;20602;-69
2022/01/29 01:35:29;;;;;;;31.80;18.97;;;;;;;5.43;93.74;102300.41;5116946;28;20189;-69
2022/01/29 01:38:09;;;;;;;40.57;21.17;;;;;;;5.49;93.75;102281.34;5116949;28;20225;-69
2022/01/29 01:40:38;;;;;;;36.37;19.43;;;;;;;5.33;94.06;102270.03;5117193;28;20177;-69
2022/01/29 01:43:04;;;;;;;37.47;19.00;;;;;;;5.53;93.65;102273.59;5116462;28;20594;-69
2022/01/29 01:45:31;;;;;;;45.70;20.40;;;;;;;5.49;93.54;102281.34;5117014;28;20247;-68
2022/01/29 01:47:58;;;;;;;47.03;20.30;;;;;;;5.57;93.54;102269.25;5116571;28;20212;-68
2022/01/29 01:50:24;;;;;;;41.87;19.70;;;;;;;5.56;93.29;102262.31;5116658;28;20193;-69
2022/01/29 01:52:51;;;;;;;34.73;19.03;;;;;;;5.57;93.20;102266.66;5116326;28;20178;-68
2022/01/29 01:55:18;;;;;;;44.83;19.33;;;;;;;5.55;93.72;102275.31;5116549;28;20189;-68
2022/01/29 01:57:45;;;;;;;37.57;18.10;;;;;;;5.53;94.04;102262.34;5116179;28;20687;-69
2022/01/29 02:00:11;;;;;;;44.93;20.43;;;;;;;5.57;94.51;102265.78;5116499;28;20186;-68
2022/01/29 02:02:38;;;;;;;45.70;18.77;;;;;;;5.46;95.18;102263.16;5116368;28;20762;-69
2022/01/29 02:05:06;;;;;;;42.53;19.13;;;;;;;5.40;95.71;102265.72;5116619;28;20659;-69
2022/01/29 02:07:32;;;;;;;39.50;20.23;;;;;;;5.39;96.31;102253.59;5116578;28;20670;-69
2022/01/29 02:09:59;;;;;;;39.33;19.20;;;;;;;5.36;96.53;102250.97;5116276;28;20205;-69
2022/01/29 02:12:29;;;;;;;43.97;20.07;;;;;;;5.32;96.58;102246.66;5098200;28;20234;-69
2022/01/29 02:14:59;;;;;;;42.43;20.10;;;;;;;5.27;96.93;102235.34;5116192;28;20238;-69
2022/01/29 02:17:26;;;;;;;37.33;20.53;;;;;;;5.23;96.92;102227.56;5115984;28;20208;-69
2022/01/29 02:19:52;;;;;;;44.60;20.70;;;;;;;5.34;96.54;102229.34;5115684;28;20250;-68
2022/01/29 02:22:19;;;;;;;35.47;19.97;;;;;;;5.37;96.38;102234.56;5115990;28;20260;-68
2022/01/29 02:24:45;;;;;;;45.90;21.07;;;;;;;5.35;96.39;102225.88;5116421;28;20185;-69
2022/01/29 02:27:12;;;;;;;38.83;20.33;;;;;;;5.33;96.02;102231.06;5115891;28;20189;-69
2022/01/29 02:29:38;;;;;;;41.70;20.03;;;;;;;5.38;96.30;102220.72;5115625;28;20264;-69
2022/01/29 02:32:05;;;;;;;52.03;22.20;;;;;;;5.39;96.51;102212.06;5116114;28;20234;-68
2022/01/29 02:34:31;;;;;;;49.97;21.97;;;;;;;5.37;96.76;102204.25;5115780;28;20558;-69
2022/01/29 02:36:58;;;;;;;43.47;21.40;;;;;;;5.37;96.76;102201.66;5115648;28;20586;-71
2022/01/29 02:39:25;;;;;;;39.77;20.20;;;;;;;5.37;97.09;102203.41;5115987;28;20181;-69
2022/01/29 02:41:51;;;;;;;41.87;21.23;;;;;;;5.33;97.37;102188.66;5115619;28;20201;-69
2022/01/29 02:44:22;;;;;;;40.13;20.50;;;;;;;5.41;97.42;102190.41;5115644;28;20189;-69
2022/01/29 02:46:52;;;;;;;47.97;23.30;;;;;;;5.41;97.70;102194.72;5115300;28;20178;-69
2022/01/29 02:49:21;;;;;;;40.93;20.50;;;;;;;5.34;97.59;102188.66;5115185;28;20262;-69
2022/01/29 02:51:55;;;;;;;47.27;20.63;;;;;;;5.39;97.29;102183.47;5115205;28;20193;-70
2022/01/29 02:54:24;;;;;;;52.47;22.10;;;;;;;5.42;97.40;102173.97;5115188;28;20184;-69
2022/01/29 02:56:51;;;;;;;52.00;20.70;;;;;;;5.44;97.46;102176.59;5115384;28;20250;-69
2022/01/29 02:59:18;;;;;;;37.27;21.60;;;;;;;5.49;97.14;102172.25;5115306;28;20205;-69
2022/01/29 03:01:45;;;;;;;42.97;21.40;;;;;;;5.43;97.05;102180.00;5115162;28;20258;-70
2022/01/29 03:04:12;;;;;;;48.97;19.83;;;;;;;5.49;97.14;102172.25;5114928;28;20183;-69
2022/01/29 03:06:39;;;;;;;47.10;20.03;;;;;;;5.52;97.08;102160.16;5114905;28;20215;-69
2022/01/29 03:09:07;;;;;;;39.00;19.93;;;;;;;5.45;96.99;102167.94;5114830;28;20617;-69
2022/01/29 03:11:34;;;;;;;40.40;21.33;;;;;;;5.44;97.18;102154.06;5114804;28;20185;-69
2022/01/29 03:14:01;;;;;;;44.63;20.23;;;;;;;5.43;97.37;102160.13;5114772;28;20177;-69
2022/01/29 03:16:27;;;;;;;43.00;20.77;;;;;;;5.51;97.36;102145.44;5114745;28;20181;-69
2022/01/29 03:18:54;;;;;;;45.00;21.03;;;;;;;5.62;97.06;102150.63;5114658;28;20204;-69
2022/01/29 03:21:20;;;;;;;44.97;19.77;;;;;;;5.48;96.85;102150.59;5114457;28;20189;-69
2022/01/29 03:23:47;;;;;;;44.07;21.30;;;;;;;5.55;96.84;102151.50;5114625;28;20193;-69
2022/01/29 03:26:13;;;;;;;40.20;19.10;;;;;;;5.52;97.11;102146.31;5114534;28;20192;-69
2022/01/29 03:28:40;;;;;;;47.93;19.03;;;;;;;5.56;97.02;102141.97;5114646;28;20624;-69
2022/01/29 03:31:06;;;;;;;54.10;21.27;;;;;;;5.58;97.19;102135.06;5114258;28;20181;-69
2022/01/29 03:33:33;;;;;;;40.37;21.27;;;;;;;5.53;97.23;102132.44;5114622;28;20271;-70
2022/01/29 03:35:59;;;;;;;41.60;19.03;;;;;;;5.43;97.77;102131.56;5096859;28;20242;-69
2022/01/29 03:38:26;;;;;;;49.23;19.97;;;;;;;5.50;97.95;102129.81;5114243;28;20213;-69
2022/01/29 03:40:55;;;;;;;45.23;20.50;;;;;;;5.48;98.13;102128.97;5114274;28;20230;-69
2022/01/29 03:43:29;;;;;;;47.77;19.80;;;;;;;5.53;97.93;102135.91;5114144;28;20209;-69
2022/01/29 03:45:55;;;;;;;31.20;19.00;;;;;;;5.50;98.08;102124.63;5114523;28;20642;-69
2022/01/29 03:48:22;;;;;;;39.57;19.77;;;;;;;5.55;97.78;102124.66;5114035;28;20720;-69
2022/01/29 03:50:49;;;;;;;45.37;20.00;;;;;;;5.61;97.53;102120.34;5114639;28;20193;-69
2022/01/29 03:53:15;;;;;;;34.67;18.37;;;;;;;5.56;97.78;102116.84;5114089;28;20230;-69
2022/01/29 03:55:42;;;;;;;45.83;20.10;;;;;;;5.55;98.05;102107.31;5114061;28;20189;-69
2022/01/29 03:58:08;;;;;;;38.60;19.63;;;;;;;5.45;99.01;102108.19;5114246;28;20201;-69
2022/01/29 04:00:35;;;;;;;41.23;19.57;;;;;;;5.45;99.34;102115.97;5113990;28;20254;-69
2022/01/29 04:03:01;;;;;;;47.40;21.27;;;;;;;5.44;100.00;102098.66;5114183;28;20193;-69
2022/01/29 04:05:28;;;;;;;38.27;19.20;;;;;;;5.42;100.00;102098.63;5113917;28;20181;-69
2022/01/29 04:07:55;;;;;;;35.87;19.90;;;;;;;5.33;100.00;102103.81;5114151;28;20223;-69
2022/01/29 04:10:23;;;;;;;41.77;20.20;;;;;;;5.29;100.00;102099.50;5114403;28;20189;-70
2022/01/29 04:12:52;;;;;;;39.17;19.40;;;;;;;5.32;100.00;102096.91;5114109;28;20169;-69
2022/01/29 04:15:18;;;;;;;37.03;19.13;;;;;;;5.41;100.00;102093.44;5095752;28;20189;-69
2022/01/29 04:17:45;;;;;;;34.73;19.33;;;;;;;5.39;100.00;102092.59;5113995;28;20227;-69
2022/01/29 04:20:12;;;;;;;33.30;18.60;;;;;;;5.40;100.00;102089.13;5113817;28;20254;-69
2022/01/29 04:22:38;;;;;;;40.07;20.50;;;;;;;5.37;100.00;102090.00;5113879;28;20209;-69
2022/01/29 04:25:05;;;;;;;42.03;19.57;;;;;;;5.36;100.00;102071.78;5113711;28;20188;-69
2022/01/29 04:27:39;;;;;;;35.17;19.37;;;;;;;5.35;100.00;102083.03;5113579;28;20238;-69
2022/01/29 04:30:11;;;;;;;43.90;20.43;;;;;;;5.37;100.00;102086.53;5114798;28;20548;-69
2022/01/29 04:35:05;;;;;;;46.90;19.90;;;;;;;5.34;100.00;102097.75;5113626;28;20234;-69
2022/01/29 04:37:31;;;;;;;42.33;20.97;;;;;;;5.32;100.00;102085.63;5113750;28;20213;-70
2022/01/29 04:39:57;;;;;;;42.27;19.90;;;;;;;5.34;100.00;102083.91;5114126;28;20658;-70
2022/01/29 04:42:24;;;;;;;38.27;20.30;;;;;;;5.41;100.00;102085.66;5115502;28;20205;-69
2022/01/29 04:44:50;;;;;;;35.97;18.40;;;;;;;5.46;100.00;102078.75;5117723;28;20185;-69
2022/01/29 04:47:17;;;;;;;46.07;21.30;;;;;;;5.37;100.00;102069.22;5117570;28;20258;-69
2022/01/29 04:49:43;;;;;;;42.80;19.63;;;;;;;5.46;100.00;102070.94;5117619;28;20250;-70
2022/01/29 04:52:10;;;;;;;52.03;20.57;;;;;;;5.49;100.00;102066.63;5117532;28;20739;-69
2022/01/29 04:54:36;;;;;;;45.03;20.50;;;;;;;5.54;100.00;102066.63;5118063;28;20242;-69
2022/01/29 04:57:03;;;;;;;33.90;18.63;;;;;;;5.49;100.00;102055.34;5117379;28;20185;-70
2022/01/29 04:59:29;;;;;;;38.70;18.13;;;;;;;5.55;100.00;102065.75;5117710;28;20242;-70
2022/01/29 05:01:56;;;;;;;33.70;18.57;;;;;;;5.61;100.00;102054.50;5117533;28;20658;-70
2022/01/29 05:04:22;;;;;;;37.80;18.67;;;;;;;5.62;100.00;102051.91;5117313;28;20189;-69
2022/01/29 05:06:49;;;;;;;43.23;20.43;;;;;;;5.57;100.00;102053.63;5099294;28;20266;-70
2022/01/29 05:09:15;;;;;;;39.83;20.17;;;;;;;5.68;100.00;102051.06;5117437;28;20608;-70
2022/01/29 05:11:46;;;;;;;41.80;20.07;;;;;;;5.70;100.00;102047.59;5117164;28;20550;-70
2022/01/29 05:14:22;;;;;;;42.30;19.70;;;;;;;5.74;100.00;102044.13;5099367;28;20175;-70
2022/01/29 05:27:32;;;;;;;34.70;18.27;;;;;;;5.78;100.00;102019.00;5116837;28;20217;-70
2022/01/29 05:29:59;;;;;;;30.40;17.40;;;;;;;5.79;100.00;102023.34;5116819;28;20226;-69
2022/01/29 05:32:25;;;;;;;34.13;17.80;;;;;;;5.86;100.00;102006.88;5116769;28;20188;-70
2022/01/29 05:34:52;;;;;;;38.73;18.87;;;;;;;5.85;100.00;102012.06;5116712;28;20213;-69
2022/01/29 05:37:38;;;;;;;26.07;17.13;;;;;;;5.86;100.00;102011.19;5116870;28;20211;-70
2022/01/29 05:40:05;;;;;;;27.63;15.70;;;;;;;5.87;100.00;102010.34;5117178;28;20639;-70
2022/01/29 05:42:32;;;;;;;35.47;18.33;;;;;;;5.87;100.00;102000.81;5116507;28;20213;-70
2022/01/29 05:44:58;;;;;;;22.50;15.03;;;;;;;5.90;100.00;102010.31;5116815;28;20588;-70
2022/01/29 05:47:25;;;;;;;26.57;15.57;;;;;;;5.79;100.00;102008.63;5098786;28;20261;-70
2022/01/29 05:49:51;;;;;;;26.20;16.93;;;;;;;5.85;100.00;102009.47;5116463;28;20189;-69
2022/01/29 05:52:18;;;;;;;31.17;18.37;;;;;;;5.92;100.00;102000.81;5116072;28;20173;-69
2022/01/29 05:54:44;;;;;;;30.23;16.67;;;;;;;5.92;100.00;101996.47;5116262;28;20249;-70
2022/01/29 05:57:11;;;;;;;35.93;17.03;;;;;;;5.96;100.00;101990.44;5116790;28;20216;-70
2022/01/29 05:59:37;;;;;;;23.63;14.50;;;;;;;6.07;100.00;101993.88;5097961;28;20528;-70
2022/01/29 06:02:03;;;;;;;34.67;16.77;;;;;;;6.06;100.00;101991.25;5116134;28;20588;-69
2022/01/29 06:04:30;;;;;;;25.73;15.23;;;;;;;6.06;100.00;101991.25;5116696;28;20181;-69
2022/01/29 06:06:56;;;;;;;24.23;15.13;;;;;;;6.03;100.00;101991.28;5116326;28;20185;-71
2022/01/29 06:09:23;;;;;;;29.77;15.80;;;;;;;6.06;100.00;101988.66;5098529;28;20215;-69
2022/01/29 06:11:49;;;;;;;22.00;15.10;;;;;;;6.09;100.00;101990.41;5116010;28;20250;-69
2022/01/29 06:14:16;;;;;;;27.63;14.93;;;;;;;6.06;100.00;101992.13;5116223;28;20246;-69
2022/01/29 06:16:42;;;;;;;24.37;14.40;;;;;;;6.11;100.00;101993.88;5097997;28;20189;-69
2022/01/29 06:19:09;;;;;;;23.33;14.90;;;;;;;6.10;100.00;101981.75;5098015;28;20756;-70
2022/01/29 06:21:35;;;;;;;28.57;14.63;;;;;;;6.12;100.00;101973.06;5115726;28;20246;-69
2022/01/29 06:24:02;;;;;;;30.00;16.10;;;;;;;6.17;100.00;101971.31;5115674;28;20209;-70
2022/01/29 06:26:29;;;;;;;24.97;14.63;;;;;;;6.15;100.00;101986.06;5097655;28;20204;-70
2022/01/29 06:28:55;;;;;;;25.50;15.87;;;;;;;6.22;100.00;101982.56;5115965;28;20565;-70
2022/01/29 06:31:22;;;;;;;28.97;15.73;;;;;;;6.18;100.00;101985.19;5116231;28;20177;-70
2022/01/29 06:33:48;;;;;;;24.60;15.00;;;;;;;6.25;100.00;101971.28;5097562;28;20250;-69
2022/01/29 06:36:15;;;;;;;22.47;14.47;;;;;;;6.27;100.00;101965.19;5115574;28;20723;-70
2022/01/29 06:38:41;;;;;;;19.53;15.10;;;;;;;6.23;100.00;101966.09;5115743;28;20204;-70
2022/01/29 06:41:08;;;;;;;25.77;14.97;;;;;;;6.22;100.00;101966.97;5115769;28;20189;-70
2022/01/29 06:43:34;;;;;;;21.43;14.20;;;;;;;6.26;100.00;101963.47;5115334;28;20205;-70
2022/01/29 06:46:01;;;;;;;25.43;15.37;;;;;;;6.25;100.00;101969.56;5115926;28;20276;-70
2022/01/29 06:48:27;;;;;;;28.77;16.20;;;;;;;6.25;100.00;101956.53;5115226;28;20236;-70
2022/01/29 06:50:54;;;;;;;29.67;14.93;;;;;;;6.28;100.00;101955.66;5115536;28;20186;-70
2022/01/29 06:53:21;;;;;;;29.33;17.27;;;;;;;6.33;100.00;101959.13;5115182;28;20185;-70
2022/01/29 06:55:47;;;;;;;28.23;17.23;;;;;;;6.31;100.00;101953.94;5114979;28;20190;-70
2022/01/29 06:58:13;;;;;;;24.20;15.10;;;;;;;6.34;100.00;101948.69;5115039;28;20333;-70
2022/01/29 07:01:00;;;;;;;28.40;17.47;;;;;;;6.31;100.00;101953.94;5114872;28;20666;-70
2022/01/29 07:03:27;;;;;;;28.50;17.17;;;;;;;6.37;100.00;101949.59;5115155;28;20215;-69
2022/01/29 07:05:53;;;;;;;26.87;16.80;;;;;;;6.38;100.00;101948.72;5114045;28;20186;-70
2022/01/29 07:08:20;;;;;;;26.10;15.77;;;;;;;6.40;100.00;101954.75;5114832;28;20209;-70
2022/01/29 07:10:48;;;;;;;28.10;16.57;;;;;;;6.42;100.00;101953.88;5096560;28;20246;-70
2022/01/29 07:13:15;;;;;;;35.73;18.20;;;;;;;6.42;100.00;101948.66;5114768;28;20495;-70
2022/01/29 07:15:41;;;;;;;30.37;19.00;;;;;;;6.41;100.00;101948.69;5115035;28;20186;-70
2022/01/29 07:18:08;;;;;;;29.90;17.37;;;;;;;6.40;100.00;101944.34;5114938;28;20272;-70
2022/01/29 07:20:34;;;;;;;29.43;17.17;;;;;;;6.55;100.00;101952.94;5114809;28;20222;-70
2022/01/29 07:23:06;;;;;;;34.80;18.87;;;;;;;6.54;100.00;101950.34;5114538;28;20209;-70
2022/01/29 07:25:33;;;;;;;27.67;17.93;;;;;;;6.58;100.00;101944.28;5115138;28;20626;-70
2022/01/29 07:27:59;;;;;;;33.93;18.80;;;;;;;6.61;100.00;101950.31;5114429;28;20205;-70
2022/01/29 07:30:25;;;;;;;31.13;18.10;;;;;;;6.52;100.00;101937.38;5114796;28;20173;-70
2022/01/29 07:32:52;;;;;;;40.33;19.27;;;;;;;6.54;100.00;101937.34;5114350;28;20196;-70
2022/01/29 07:35:19;;;;;;;32.07;18.57;;;;;;;6.47;100.00;101931.31;5096114;28;20193;-70
2022/01/29 07:37:50;;;;;;;32.87;20.20;;;;;;;6.51;100.00;101929.56;5114254;28;20207;-70
2022/01/29 07:40:17;;;;;;;36.33;20.27;;;;;;;6.55;100.00;101934.72;5114544;28;20643;-69
2022/01/29 07:42:43;;;;;;;35.70;19.63;;;;;;;6.52;100.00;101937.38;5114348;28;20197;-69
2022/01/29 07:45:10;;;;;;;33.00;19.33;;;;;;;6.55;100.00;101931.28;5114668;28;20162;-69
2022/01/29 07:47:36;;;;;;;45.70;19.30;;;;;;;6.57;100.00;101934.72;5114099;28;20262;-70
2022/01/29 07:50:04;;;;;;;31.10;19.33;;;;;;;6.57;100.00;101920.00;5114071;28;20205;-70
2022/01/29 07:52:32;;;;;;;28.97;18.67;;;;;;;6.60;100.00;101926.91;5114366;28;20181;-70
2022/01/29 07:55:07;;;;;;;40.00;19.03;;;;;;;6.68;100.00;101917.31;5114340;28;20172;-69
2022/01/29 07:57:34;;;;;;;39.80;19.70;;;;;;;6.64;100.00;101931.22;5114195;28;20209;-70
2022/01/29 08:00:00;;;;;;;32.13;19.40;;;;;;;6.68;100.00;101932.94;5113962;28;20197;-69
2022/01/29 08:02:27;;;;;;;30.97;18.83;;;;;;;6.59;100.00;101915.66;5113883;28;20659;-70
2022/01/29 08:04:53;;;;;;;40.77;20.80;;;;;;;6.63;100.00;101912.13;5114108;28;20213;-71
2022/01/29 08:07:20;;;;;;;43.30;20.77;;;;;;;6.72;100.00;101908.63;5114341;28;20618;-70
2022/01/29 08:09:46;;;;;;;39.03;20.07;;;;;;;6.65;100.00;101908.69;5113872;28;20549;-70
2022/01/29 08:12:13;;;;;;;39.80;20.13;;;;;;;6.76;100.00;101915.53;5113792;28;20185;-69
2022/01/29 08:14:39;;;;;;;39.47;20.63;;;;;;;6.74;100.00;101909.47;5096147;28;20584;-70
2022/01/29 08:17:07;;;;;;;35.67;20.53;;;;;;;6.70;100.00;101894.75;5113826;28;20589;-70
2022/01/29 08:19:34;;;;;;;35.17;19.10;;;;;;;6.77;100.00;101909.44;5113786;28;20251;-71
2022/01/29 08:22:05;;;;;;;37.83;19.00;;;;;;;6.80;100.00;101895.56;5113991;28;20173;-69
2022/01/29 08:24:31;;;;;;;45.57;20.93;;;;;;;6.81;100.00;101899.91;5114174;28;20204;-70
2022/01/29 08:26:58;;;;;;;38.40;21.27;;;;;;;6.83;100.00;101888.59;5114447;28;20190;-71
2022/01/29 08:29:24;;;;;;;36.93;21.47;;;;;;;6.86;100.00;101883.38;5095444;28;20197;-70
2022/01/29 08:31:51;;;;;;;37.43;19.90;;;;;;;6.96;100.00;101889.38;5113689;28;20181;-69
2022/01/29 08:34:18;;;;;;;39.27;19.27;;;;;;;6.98;100.00;101891.97;5113923;28;20193;-70
2022/01/29 08:36:44;;;;;;;40.83;20.63;;;;;;;6.98;100.00;101889.34;5095332;28;20226;-70
2022/01/29 08:39:11;;;;;;;32.00;17.80;;;;;;;6.95;100.00;101892.00;5095229;28;20266;-70
2022/01/29 08:41:37;;;;;;;32.60;19.83;;;;;;;6.96;100.00;101889.38;5113458;28;20181;-69
2022/01/29 08:44:04;;;;;;;35.07;18.83;;;;;;;6.98;100.00;101886.75;5113713;28;20267;-70
2022/01/29 08:46:30;;;;;;;33.50;18.97;;;;;;;6.95;100.00;101884.19;5113662;28;20199;-70
2022/01/29 08:48:57;;;;;;;30.23;18.13;;;;;;;7.01;100.00;101892.81;5113708;28;20258;-70
2022/01/29 08:51:23;;;;;;;25.80;17.23;;;;;;;7.02;100.00;101886.72;5095755;28;20211;-70
2022/01/29 08:53:50;;;;;;;27.07;17.53;;;;;;;6.93;100.00;101881.59;5113685;28;20238;-70
2022/01/29 08:56:17;;;;;;;28.77;17.60;;;;;;;6.99;100.00;101868.50;5113679;28;20183;-70
2022/01/29 08:58:44;;;;;;;27.57;16.63;;;;;;;7.02;100.00;101876.31;5113354;28;20209;-70
2022/01/29 09:01:11;;;;;;;25.40;16.63;;;;;;;6.99;100.00;101863.28;5095149;28;20215;-70
2022/01/29 09:03:38;;;;;;;33.37;17.40;;;;;;;7.02;100.00;101871.09;5113193;28;20208;-70
2022/01/29 09:06:04;;;;;;;24.93;17.53;;;;;;;7.00;100.00;101862.44;5113339;28;20197;-70
2022/01/29 09:08:31;;;;;;;31.90;18.00;;;;;;;7.05;100.00;101855.44;5113206;28;20213;-70
2022/01/29 09:10:58;;;;;;;27.53;18.03;;;;;;;7.04;100.00;101855.47;5113263;28;20191;-70
2022/01/29 09:13:26;;;;;;;28.37;18.30;;;;;;;7.06;100.00;101846.75;5113508;28;20178;-70
2022/01/29 09:15:54;;;;;;;28.43;17.23;;;;;;;7.10;100.00;101850.19;5095113;28;20189;-70
2022/01/29 09:18:20;;;;;;;27.93;17.90;;;;;;;7.15;100.00;101838.88;5094842;28;20227;-70
2022/01/29 09:20:47;;;;;;;24.20;17.17;;;;;;;7.19;100.00;101842.31;5113355;28;20612;-71
2022/01/29 09:23:13;;;;;;;28.23;18.10;;;;;;;7.08;100.00;101844.16;5113353;28;20245;-70
2022/01/29 09:25:40;;;;;;;26.37;18.63;;;;;;;7.11;100.00;101839.75;5095085;28;20712;-70
2022/01/29 09:28:08;;;;;;;27.07;18.80;;;;;;;7.21;100.00;101829.25;5114308;28;20617;-70
2022/01/29 09:30:35;;;;;;;26.97;18.07;;;;;;;7.29;100.00;101830.94;5117310;28;20180;-70
2022/01/29 09:33:02;;;;;;;27.30;17.63;;;;;;;7.31;100.00;101828.31;5116749;28;20650;-70
2022/01/29 09:35:29;;;;;;;26.73;18.70;;;;;;;7.26;100.00;101830.09;5116752;28;20230;-70
2022/01/29 09:37:56;;;;;;;29.03;18.17;;;;;;;7.31;100.00;101823.09;5116617;28;20262;-70
2022/01/29 09:40:23;;;;;;;33.27;18.50;;;;;;;7.36;100.00;101824.78;5117166;28;20185;-70
2022/01/29 09:42:51;;;;;;;23.93;17.77;;;;;;;7.34;100.00;101820.44;5116598;28;20588;-70
2022/01/29 09:45:21;;;;;;;27.70;17.20;;;;;;;7.42;100.00;101813.41;5116713;28;20194;-70
2022/01/29 09:47:49;;;;;;;23.93;17.70;;;;;;;7.44;100.00;101824.69;5116336;28;20691;-70
2022/01/29 09:50:18;;;;;;;26.67;17.97;;;;;;;7.43;100.00;101826.44;5116353;28;20185;-70
2022/01/29 09:52:45;;;;;;;23.27;16.63;;;;;;;7.46;100.00;101820.31;5116694;28;20181;-70
2022/01/29 09:55:11;;;;;;;26.73;17.43;;;;;;;7.55;100.00;101832.38;5116361;28;20201;-70
2022/01/29 09:57:39;;;;;;;29.07;16.07;;;;;;;7.52;100.00;101825.47;5116388;28;20695;-71
2022/01/29 10:00:07;;;;;;;19.80;16.57;;;;;;;7.52;100.00;101812.44;5116561;28;20173;-70
2022/01/29 10:02:39;;;;;;;25.80;17.37;;;;;;;7.61;100.00;101811.47;5116846;28;20651;-70
2022/01/29 10:05:08;;;;;;;24.03;16.87;;;;;;;7.65;100.00;101805.34;5097974;28;20674;-70
2022/01/29 10:07:35;;;;;;;29.77;17.57;;;;;;;7.65;100.00;101810.56;5116408;28;20615;-71
2022/01/29 10:10:15;;;;;;;26.30;16.50;;;;;;;7.66;100.00;101807.09;5115982;28;20718;-70
2022/01/29 10:12:41;;;;;;;22.00;17.03;;;;;;;7.66;100.00;101810.56;5097723;28;20321;-72
2022/01/29 10:15:09;;;;;;;29.13;17.57;;;;;;;7.69;100.00;101820.06;5116221;28;20177;-70
2022/01/29 10:17:53;;;;;;;24.13;15.97;;;;;;;7.69;100.00;101815.72;5116168;28;20229;-70
2022/01/29 10:20:26;;;;;;;21.60;15.70;;;;;;;7.75;100.00;101814.78;5115915;28;20707;-70
2022/01/29 10:22:58;;;;;;;20.13;16.17;;;;;;;7.80;100.00;101804.31;5115855;28;20214;-70
2022/01/29 10:25:32;;;;;;;22.00;17.07;;;;;;;7.85;100.00;101805.97;5097436;28;20674;-70
2022/01/29 10:28:19;;;;;;;21.97;16.30;;;;;;;7.84;100.00;101796.41;5115870;28;20694;-71
2022/01/29 10:30:48;;;;;;;21.63;15.67;;;;;;;7.87;100.00;101785.09;5098108;28;20684;-70
2022/01/29 10:33:19;;;;;;;21.53;16.57;;;;;;;7.91;100.00;101784.16;5116183;28;20193;-70
2022/01/29 10:35:48;;;;;;;23.23;16.90;;;;;;;7.91;100.00;101769.38;5115563;28;20181;-71
2022/01/29 10:38:19;;;;;;;18.83;14.63;;;;;;;7.92;100.00;101775.44;5115413;28;20248;-70
2022/01/29 10:40:47;;;;;;;24.83;14.20;;;;;;;7.89;100.00;101765.94;5097738;28;20575;-71
2022/01/29 10:43:13;;;;;;;22.97;15.63;;;;;;;7.86;100.00;101775.53;5115633;28;20182;-71
2022/01/29 10:45:41;;;;;;;19.57;14.60;;;;;;;7.88;100.00;101777.25;5115529;28;20200;-70
2022/01/29 10:48:08;;;;;;;19.73;14.87;;;;;;;7.85;100.00;101772.06;5097123;28;20222;-70
2022/01/29 10:50:34;;;;;;;16.90;14.43;;;;;;;7.85;100.00;101771.19;5115203;28;20227;-71
2022/01/29 10:53:26;;;;;;;24.30;14.93;;;;;;;7.90;100.00;101765.06;5115156;28;20594;-71
2022/01/29 10:56:00;;;;;;;18.40;14.60;;;;;;;7.92;100.00;101752.84;5115602;28;20612;-70
2022/01/29 10:58:27;;;;;;;25.80;15.10;;;;;;;7.89;100.00;101754.66;5115340;28;20205;-71
2022/01/29 11:01:20;;;;;;;20.07;14.93;;;;;;;7.90;100.00;101748.53;5115066;28;20192;-70
2022/01/29 11:03:46;;;;;;;21.90;15.23;;;;;;;7.99;100.00;101743.19;5115374;28;20213;-70
2022/01/29 11:06:17;;;;;;;21.50;15.23;;;;;;;7.91;100.00;101734.63;5115162;28;20721;-70
2022/01/29 11:08:43;;;;;;;23.50;15.03;;;;;;;7.95;100.00;101724.13;5114889;28;20273;-71
2022/01/29 11:11:11;;;;;;;21.93;15.30;;;;;;;8.08;100.00;101721.34;5097291;28;20577;-70
2022/01/29 11:13:58;;;;;;;20.07;14.87;;;;;;;8.06;100.00;101702.25;5115256;28;20578;-71
2022/01/29 11:16:25;;;;;;;16.43;12.33;;;;;;;8.09;100.00;101694.38;5115234;28;20185;-71
2022/01/29 11:18:51;;;;;;;20.30;13.70;;;;;;;8.18;100.00;101702.06;5114535;28;20220;-70
2022/01/29 11:21:18;;;;;;;17.80;12.53;;;;;;;8.21;100.00;101709.81;5096104;28;20633;-71
2022/01/29 11:23:45;;;;;;;15.17;11.80;;;;;;;8.17;100.00;101695.13;5114507;28;20713;-70
2022/01/29 11:26:12;;;;;;;12.83;11.67;;;;;;;8.20;100.00;101698.53;5114472;28;20192;-70
2022/01/29 11:28:38;;;;;;;12.37;11.17;;;;;;;8.13;100.00;101683.88;5114526;28;20205;-70